createdAt,value
2023-01-08T10:36:01.181Z,11.80
2023-01-08T10:38:51.945Z,13.90
2023-01-08T10:41:22.522Z,12.30
2023-01-08T10:43:58.646Z,14.50
2023-01-08T10:46:37.173Z,12.80
2023-01-08T10:49:12.126Z,14.70
2023-01-08T10:51:55.914Z,12.20
2023-01-08T10:54:56.758Z,14.30
2023-01-08T10:57:28.339Z,10.90
2023-01-08T10:59:58.323Z,11.30
2023-01-08T11:02:39.480Z,11.50
2023-01-08T11:05:09.234Z,13.20
2023-01-08T11:07:37.286Z,13.00
2023-01-08T11:10:07.651Z,13.30
2023-01-08T11:12:40.378Z,12.90
2023-01-08T11:15:14.972Z,10.10
2023-01-08T11:17:45.251Z,12.60
2023-01-08T11:20:28.642Z,13.70
2023-01-08T11:23:23.976Z,14.20
2023-01-08T11:26:17.801Z,12.20
2023-01-08T11:28:48.109Z,13.20
2023-01-08T11:31:21.813Z,15.60
2023-01-08T11:33:56.416Z,16.50
2023-01-08T11:36:27.411Z,12.40
2023-01-08T11:38:57.249Z,16.00
2023-01-08T11:41:36.092Z,11.70
2023-01-08T11:44:50.577Z,13.30
2023-01-08T11:47:47.947Z,12.10
2023-01-08T11:51:01.372Z,12.60
2023-01-08T11:53:37.163Z,10.80
2023-01-08T11:56:29.432Z,12.90
2023-01-08T11:59:36.734Z,13.40
2023-01-08T12:02:26.713Z,12.10
2023-01-08T12:04:59.998Z,10.20
2023-01-08T12:08:10.936Z,10.80
2023-01-08T12:11:07.366Z,9.10
2023-01-08T12:14:16.971Z,14.10
2023-01-08T12:16:54.620Z,11.20
2023-01-08T12:20:03.136Z,12.70
2023-01-08T12:22:42.642Z,12.60
2023-01-08T12:25:39.174Z,10.50
2023-01-08T12:28:32.937Z,11.10
2023-01-08T12:31:37.977Z,12.30
2023-01-08T12:34:14.854Z,13.10
2023-01-08T12:36:45.062Z,12.10
2023-01-08T12:39:14.575Z,13.30
2023-01-08T12:41:43.555Z,14.30
2023-01-08T12:44:13.035Z,14.00
2023-01-08T12:46:48.767Z,14.50
2023-01-08T12:49:30.449Z,13.20
2023-01-08T12:52:16.192Z,15.10
2023-01-08T12:54:55.039Z,12.80
2023-01-08T12:57:33.041Z,13.20
2023-01-08T13:00:06.374Z,14.10
2023-01-08T13:02:53.315Z,13.20
2023-01-08T13:05:27.424Z,14.20
2023-01-08T13:07:57.340Z,12.90
2023-01-08T13:10:36.902Z,13.60
2023-01-08T13:13:08.728Z,13.40
2023-01-08T13:15:37.257Z,13.70
2023-01-08T13:18:16.783Z,12.90
2023-01-08T13:20:55.803Z,12.50
2023-01-08T13:23:25.738Z,12.30
2023-01-08T13:25:53.918Z,12.00
2023-01-08T13:28:24.686Z,13.00
2023-01-08T13:30:53.163Z,12.10
2023-01-08T13:33:40.147Z,12.70
2023-01-08T13:36:17.953Z,13.30
2023-01-08T13:38:47.075Z,12.00
2023-01-08T13:41:26.367Z,11.20
2023-01-08T13:44:02.041Z,12.90
2023-01-08T13:46:34.783Z,13.60
2023-01-08T13:49:08.082Z,11.60
2023-01-08T13:51:38.706Z,12.10
2023-01-08T13:54:38.164Z,11.20
2023-01-08T13:57:15.399Z,12.30
2023-01-08T13:59:53.610Z,11.70
2023-01-08T14:02:24.240Z,8.30
2023-01-08T14:04:55.234Z,10.40
2023-01-08T14:07:23.779Z,10.40
2023-01-08T14:09:52.166Z,11.60
2023-01-08T14:12:24.315Z,10.20
2023-01-08T14:14:59.772Z,9.80
2023-01-08T14:17:35.579Z,10.10
2023-01-08T14:20:12.144Z,10.50
2023-01-08T14:22:43.075Z,10.20
2023-01-08T14:25:22.282Z,9.60
2023-01-08T14:28:01.588Z,9.40
2023-01-08T14:30:32.810Z,10.10
2023-01-08T14:33:01.025Z,11.50
2023-01-08T14:35:37.614Z,9.50
2023-01-08T14:38:12.195Z,10.80
2023-01-08T14:40:46.877Z,10.30
2023-01-08T14:43:20.054Z,10.70
2023-01-08T14:45:49.381Z,9.10
2023-01-08T14:48:40.159Z,11.00
2023-01-08T14:51:14.551Z,13.30
2023-01-08T14:53:45.897Z,11.90
2023-01-08T14:56:20.923Z,12.30
2023-01-08T14:59:00.610Z,11.40
2023-01-08T15:01:31.168Z,12.90
2023-01-08T15:04:19.994Z,11.20
2023-01-08T15:06:48.668Z,12.40
2023-01-08T15:09:24.141Z,10.50
2023-01-08T15:11:58.064Z,13.50
2023-01-08T15:14:28.629Z,13.40
2023-01-08T15:16:59.048Z,13.70
2023-01-08T15:19:29.648Z,11.70
2023-01-08T15:21:59.141Z,14.70
2023-01-08T15:24:32.393Z,12.00
2023-01-08T15:27:00.261Z,12.20
2023-01-08T15:29:33.190Z,13.10
2023-01-08T15:32:23.246Z,12.90
2023-01-08T15:34:51.188Z,12.40
2023-01-08T15:37:20.449Z,10.90
2023-01-08T15:39:50.129Z,13.20
2023-01-08T15:42:47.359Z,14.20
2023-01-08T15:45:16.927Z,14.10
2023-01-08T15:47:46.732Z,14.20
2023-01-08T18:01:33.617Z,24.60
2023-01-08T18:04:03.267Z,21.40
2023-01-08T18:06:30.731Z,24.00
2023-01-08T18:09:00.134Z,19.50
2023-01-08T18:11:28.317Z,20.00
2023-01-08T18:14:03.988Z,21.60
2023-01-08T18:16:38.394Z,19.00
2023-01-08T18:19:08.388Z,19.50
2023-01-08T18:21:40.154Z,17.80
2023-01-08T18:24:09.347Z,18.20
2023-01-08T18:26:37.634Z,20.30
2023-01-08T18:29:07.811Z,21.40
2023-01-08T18:31:45.836Z,21.50
2023-01-08T18:34:14.784Z,18.00
2023-01-08T18:36:54.779Z,18.90
2023-01-08T18:39:29.522Z,21.10
2023-01-08T18:42:19.258Z,23.00
2023-01-08T18:44:56.220Z,20.10
2023-01-08T18:47:29.972Z,21.30
2023-01-08T18:50:06.387Z,21.70
2023-01-08T18:52:46.256Z,21.70
2023-01-08T18:55:17.925Z,21.00
2023-01-08T18:58:00.337Z,19.60
2023-01-08T19:00:38.096Z,20.70
2023-01-08T19:03:17.266Z,18.20
2023-01-08T19:05:58.266Z,20.50
2023-01-08T19:08:25.800Z,17.50
2023-01-08T19:10:57.491Z,18.90
2023-01-08T19:13:27.424Z,17.70
2023-01-08T19:15:55.647Z,19.10
2023-01-08T19:18:29.684Z,18.60
2023-01-08T19:21:00.163Z,17.80
2023-01-08T19:23:40.054Z,18.70
2023-01-08T19:26:10.043Z,17.50
2023-01-08T19:28:38.692Z,14.60
2023-01-08T19:31:18.318Z,16.70
2023-01-08T19:33:46.591Z,17.30
2023-01-08T19:36:16.157Z,15.60
2023-01-08T19:38:46.785Z,18.90
2023-01-08T19:41:33.716Z,17.20
2023-01-08T19:44:02.422Z,17.10
2023-01-08T19:46:34.965Z,15.80
2023-01-08T19:49:08.635Z,16.10
2023-01-08T19:51:36.469Z,17.90
2023-01-08T19:54:11.551Z,16.10
2023-01-08T19:56:39.133Z,16.00
2023-01-08T19:59:08.025Z,17.30
2023-01-08T20:01:41.428Z,15.50
2023-01-08T20:04:10.740Z,14.80
2023-01-08T20:06:38.663Z,15.70
2023-01-08T20:09:08.603Z,16.30
2023-01-08T20:11:37.468Z,15.40
2023-01-08T20:14:05.514Z,17.10
2023-01-08T20:16:34.611Z,15.40
2023-01-08T20:19:04.009Z,13.60
2023-01-08T20:21:34.302Z,16.60
2023-01-08T20:24:09.311Z,15.30
2023-01-08T20:26:38.398Z,14.30
2023-01-08T20:29:06.691Z,14.60
2023-01-08T20:31:35.712Z,14.90
2023-01-08T20:34:06.742Z,13.70
2023-01-08T20:36:36.977Z,13.10
2023-01-08T20:39:07.329Z,15.20
2023-01-08T20:41:36.697Z,13.20
2023-01-08T20:44:09.043Z,14.40
2023-01-08T20:46:48.744Z,14.60
2023-01-08T20:49:19.953Z,12.80
2023-01-08T20:52:06.935Z,14.70
2023-01-08T20:54:34.555Z,13.20
2023-01-08T20:57:01.903Z,14.00
2023-01-08T20:59:30.342Z,12.40
2023-01-08T21:02:01.351Z,13.10
2023-01-08T21:04:28.594Z,14.60
2023-01-08T21:06:59.709Z,13.70
2023-01-08T21:09:34.266Z,12.10
2023-01-08T21:12:03.316Z,11.20
2023-01-08T21:14:32.172Z,10.40
2023-01-08T21:17:01.682Z,10.90
2023-01-08T21:19:32.442Z,11.10
2023-01-08T21:21:59.979Z,11.10
2023-01-08T21:24:33.982Z,10.00
2023-01-08T21:27:03.308Z,10.30
2023-01-08T21:29:31.413Z,12.20
2023-01-08T21:32:00.674Z,9.90
2023-01-08T21:34:34.807Z,11.10
2023-01-08T21:37:08.448Z,10.70
2023-01-08T21:39:37.175Z,10.40
2023-01-08T21:42:23.884Z,8.50
2023-01-08T21:45:09.940Z,10.00
2023-01-08T21:47:38.359Z,10.00
2023-01-08T21:50:12.519Z,10.80
2023-01-08T21:52:58.916Z,11.20
2023-01-08T21:55:26.460Z,10.70
2023-01-08T21:57:54.813Z,10.70
2023-01-08T22:00:24.511Z,10.50
2023-01-08T22:02:56.883Z,11.60
2023-01-08T22:05:27.458Z,11.10
2023-01-08T22:07:58.453Z,12.60
2023-01-08T22:10:28.171Z,11.50
2023-01-08T22:13:01.515Z,11.10
2023-01-08T22:15:39.528Z,10.20
2023-01-08T22:18:31.767Z,10.30
2023-01-08T22:21:12.990Z,10.60
2023-01-08T22:23:49.877Z,10.30
2023-01-08T22:26:22.855Z,13.00
2023-01-08T22:28:55.456Z,12.30
2023-01-08T22:31:27.874Z,11.20
2023-01-08T22:33:59.248Z,12.30
2023-01-08T22:36:28.908Z,13.70
2023-01-08T22:38:57.026Z,11.20
2023-01-08T22:41:25.216Z,11.40
2023-01-08T22:44:00.884Z,10.80
2023-01-08T22:46:32.407Z,10.90
2023-01-08T22:49:00.409Z,11.10
2023-01-08T22:51:27.976Z,12.20
2023-01-08T22:53:56.145Z,12.90
2023-01-08T22:56:23.580Z,11.60
2023-01-08T22:58:51.285Z,10.20
2023-01-08T23:01:23.139Z,11.00
2023-01-08T23:03:50.981Z,12.30
2023-01-08T23:06:19.588Z,11.00
2023-01-08T23:08:47.025Z,11.00
2023-01-08T23:11:17.616Z,10.40
2023-01-08T23:13:45.034Z,10.40
2023-01-08T23:16:14.690Z,10.80
2023-01-08T23:18:42.627Z,11.20
2023-01-08T23:21:16.077Z,11.50
2023-01-08T23:23:44.623Z,12.80
2023-01-08T23:26:23.271Z,12.10
2023-01-08T23:28:52.577Z,11.60
2023-01-08T23:31:23.177Z,11.50
2023-01-08T23:33:51.101Z,12.10
2023-01-08T23:36:20.810Z,13.00
2023-01-08T23:38:52.857Z,12.30
2023-01-08T23:41:25.457Z,12.00
2023-01-08T23:44:02.986Z,11.00
2023-01-08T23:46:31.281Z,12.50
2023-01-08T23:48:59.938Z,10.20
2023-01-08T23:51:27.608Z,10.50
2023-01-08T23:53:54.719Z,12.50
2023-01-08T23:56:28.615Z,11.00
2023-01-08T23:58:56.901Z,10.30
